Bookmark and Share
Track history (hours):
 

Drifting buoy 41991

Last reported at 2014-Apr-23 14:10 UTC. Time now 2014-Apr-23 15:13 UTC.
Position N 42°15' W 061°20'.

Water temperature 8.6 ° C

NotesDate/timePositionNaut miles runAvg speedWind from/ knotsBaromVisibWave heightAir tempDewpointWater temp
2014-Apr-23 14:10N 42°15' W 061°20'0 3.3 8.6
2014-Apr-23 14:05N 42°15' W 061°20'1 7.0 8.6
2014-Apr-23 14:00N 42°15' W 061°21'0 0.0
2014-Apr-23 13:58N 42°15' W 061°21'1 2.8 8.7
2014-Apr-23 13:44N 42°14' W 061°21'211.5 8.7
2014-Apr-23 13:35N 42°16' W 061°21'0 0.0 8.7
2014-Apr-23 12:45N 42°16' W 061°21'0 5.6
2014-Apr-23 12:43N 42°16' W 061°21'118.2 9.5
2014-Apr-23 12:39N 42°17' W 061°19'0 0.0 9.5
2014-Apr-23 10:52N 42°17' W 061°19'0 0.0
2014-Apr-23 10:45N 42°17' W 061°19'121.3 9.9
2014-Apr-23 10:42N 42°17' W 061°21'2 1.9 9.7
2014-Apr-23 09:50N 42°16' W 061°18'0 0.0 9.3
2014-Apr-23 09:14N 42°16' W 061°18'112.9 9.2
2014-Apr-23 09:11N 42°16' W 061°18'1 8.4 9.2
2014-Apr-23 09:04N 42°16' W 061°19'0 0.0 9.2
2014-Apr-23 08:33N 42°16' W 061°19'0 0.2 8.8
2014-Apr-23 08:14N 42°16' W 061°19'114.7 8.6
2014-Apr-23 08:08N 42°17' W 061°17'0 0.0 8.6
2014-Apr-23 07:31N 42°17' W 061°17'0 0.0 8.6
2014-Apr-23 07:24N 42°17' W 061°17'0 0.0 8.6
2014-Apr-23 07:01N 42°17' W 061°17'1 6.0 8.5
2014-Apr-23 06:52N 42°17' W 061°16'0 0.0 8.5
2014-Apr-23 05:14N 42°17' W 061°16'343.3 8.8
2014-Apr-23 05:10N 42°17' W 061°12'0 0.0 8.8
2014-Apr-23 02:12N 42°17' W 061°12'0 3.0 10.3
2014-Apr-23 02:03N 42°17' W 061°12'0 1.0 10.3
2014-Apr-23 01:45N 42°17' W 061°11'2 5.4 10.6
2014-Apr-23 01:25N 42°18' W 061°10'112.6 10.6
2014-Apr-23 01:18N 42°17' W 061°11'0 0.0 10.6
2014-Apr-23 00:32N 42°17' W 061°11'0 3.8 10.5
2014-Apr-23 00:25N 42°17' W 061°10'0 1.1 10.5
2014-Apr-23 00:07N 42°17' W 061°10'0 0.0 10.5
2014-Apr-22 23:45N 42°17' W 061°10'1 1.6 10.4
2014-Apr-22 22:50N 42°16' W 061°09'2 6.2 10.4
2014-Apr-22 22:29N 42°18' W 061°07'0 0.0 10.4
2014-Apr-22 21:33N 42°18' W 061°07'0 0.0 10.0
2014-Apr-22 20:56N 42°18' W 061°07'0 0.0 10.4
2014-Apr-22 19:57N 42°18' W 061°07'0 0.0 11.1
2014-Apr-22 19:52N 42°18' W 061°07'0 0.0 11.1
2014-Apr-22 19:14N 42°18' W 061°07'0 0.0 11.9
2014-Apr-22 18:39N 42°18' W 061°07'0 0.4 11.8
2014-Apr-22 18:12N 42°18' W 061°07'0 0.0 11.7
2014-Apr-22 16:59N 42°18' W 061°07'0 0.0 10.7
2014-Apr-22 16:55N 42°18' W 061°07'0 0.3 10.7
2014-Apr-22 16:00N 42°17' W 061°07'0 7.0 10.4
2014-Apr-22 15:56N 42°17' W 061°06'1 3.3 10.4
2014-Apr-22 15:35N 42°17' W 061°05'0 0.0 10.2
2014-Apr-22 15:14N 42°17' W 061°05'0 0.0 11.2
2014-Apr-22 14:50N 42°17' W 061°05'0 3.8 11.6
2014-Apr-22 14:45N 42°17' W 061°05'0 0.2 11.5
2014-Apr-22 14:15N 42°17' W 061°05'1 4.3 11.5
2014-Apr-22 14:01N 42°17' W 061°04'0 0.0 11.5
2014-Apr-22 13:55N 42°17' W 061°04'0 0.3 11.4
2014-Apr-22 12:37N 42°17' W 061°04'0 0.0 10.9
2014-Apr-22 11:24N 42°17' W 061°04'0 0.0 10.2
2014-Apr-22 11:13N 42°17' W 061°04'1 9.3 10.1
2014-Apr-22 11:08N 42°16' W 061°03'116.3 10.1
2014-Apr-22 11:04N 42°16' W 061°01'0 0.0 10.1
2014-Apr-22 10:07N 42°16' W 061°01'0 0.0 9.7
2014-Apr-22 10:03N 42°16' W 061°01'1 2.8 9.6
2014-Apr-22 09:45N 42°16' W 061°02'1 3.3 9.4
2014-Apr-22 09:29N 42°16' W 061°03'0 0.0 9.4
2014-Apr-22 09:28N 42°16' W 061°03'0 0.0 9.2
2014-Apr-22 08:45N 42°16' W 061°03'0 0.4 9.2
2014-Apr-22 08:27N 42°16' W 061°03'1 8.6 9.2
2014-Apr-22 08:18N 42°17' W 061°02'1 2.6 9.2
2014-Apr-22 08:06N 42°16' W 061°02'1 2.1 9.1
2014-Apr-22 07:51N 42°17' W 061°02'0 0.0 9.1
2014-Apr-22 07:12N 42°17' W 061°02'1 5.0 9.2
2014-Apr-22 07:03N 42°16' W 061°01'0 0.0 9.2
2014-Apr-22 05:27N 42°16' W 061°01'0 0.0 10.8
2014-Apr-22 05:18N 42°16' W 061°01'0 0.0 10.8
2014-Apr-22 02:32N 42°16' W 061°01'0 3.3 12.2
2014-Apr-22 02:23N 42°16' W 061°01'0 0.0 12.2
2014-Apr-22 02:00N 42°16' W 061°01'1 2.9 12.2
2014-Apr-22 01:46N 42°16' W 060°60'2 2.0 12.2
2014-Apr-22 00:54N 42°15' W 061°02'1 4.6 12.4
2014-Apr-22 00:45N 42°16' W 061°01'1 1.7 12.5
2014-Apr-22 00:15N 42°15' W 061°02'1 2.7 12.6
2014-Apr-22 00:01N 42°15' W 061°01'1 0.8
2014-Apr-21 23:09N 42°14' W 061°01'0 0.4 12.6
2014-Apr-21 22:56N 42°14' W 061°01'0 0.0 12.5
2014-Apr-21 22:39N 42°14' W 061°01'0 0.0 12.6
2014-Apr-21 21:45N 42°14' W 061°01'0 0.0 12.4
2014-Apr-21 21:20N 42°14' W 061°01'0 4.5 12.3
2014-Apr-21 21:15N 42°14' W 061°00'0 0.0
2014-Apr-21 20:41N 42°14' W 061°00'0 0.0 12.7
2014-Apr-21 20:09N 42°14' W 061°00'1 2.6 12.8
2014-Apr-21 19:40N 42°13' W 060°59'0 0.0 12.8
2014-Apr-21 19:37N 42°13' W 060°59'0 0.0 12.8
2014-Apr-21 18:48N 42°13' W 060°59'0 0.3 13.2
2014-Apr-21 18:25N 42°13' W 060°59'0 0.3 13.2
2014-Apr-21 17:09N 42°13' W 060°59'1 0.7 12.9
2014-Apr-21 16:12N 42°13' W 060°59'110.1 12.5
2014-Apr-21 16:08N 42°13' W 060°59'0 0.0 12.5
2014-Apr-21 15:57N 42°13' W 060°59'0 0.1
2014-Apr-21 15:25N 42°13' W 060°59'1 2.8 12.5
2014-Apr-21 15:09N 42°13' W 060°59'0 0.2 12.5
2014-Apr-21 14:30N 42°13' W 060°59'110.5 12.3
2014-Apr-21 14:25N 42°12' W 060°57'0 0.0 12.3
2014-Apr-21 14:14N 42°12' W 060°57'0 0.0 12.2
2014-Apr-21 12:50N 42°12' W 060°57'1 4.9 11.9
2014-Apr-21 12:43N 42°12' W 060°57'0 0.0 11.9
2014-Apr-21 11:51N 42°12' W 060°57'0 0.0 11.9
2014-Apr-21 11:44N 42°12' W 060°57'0 0.0 11.9
2014-Apr-21 11:32N 42°12' W 060°57'0 0.1 11.9
2014-Apr-21 10:13N 42°12' W 060°57'0 0.9 11.9
2014-Apr-21 10:01N 42°12' W 060°57'0 0.0 11.8
2014-Apr-21 09:50N 42°12' W 060°57'0 0.4 11.8
2014-Apr-21 08:56N 42°12' W 060°57'0 0.0 11.6
2014-Apr-21 08:42N 42°12' W 060°57'0 0.0 11.6
2014-Apr-21 08:37N 42°12' W 060°57'0 0.0 11.6
2014-Apr-21 08:31N 42°12' W 060°57'0 0.0 11.6
2014-Apr-21 07:22N 42°12' W 060°57'0 3.1 11.5
2014-Apr-21 07:15N 42°12' W 060°57'0 0.1 11.5
2014-Apr-21 06:53N 42°12' W 060°58'0 8.9 11.5
2014-Apr-21 06:50N 42°12' W 060°57'1 1.1 11.5
2014-Apr-21 05:38N 42°11' W 060°57'0 0.0 11.5
2014-Apr-21 05:33N 42°11' W 060°57'0 0.1 11.5
2014-Apr-21 02:51N 42°11' W 060°57'1 1.1 11.6
2014-Apr-21 02:13N 42°11' W 060°56'0 1.6 11.5
2014-Apr-21 02:01N 42°10' W 060°56'0 0.0 11.5
2014-Apr-21 01:15N 42°10' W 060°56'0 0.1 11.5
2014-Apr-21 00:30N 42°10' W 060°56'0 0.0 11.5
2014-Apr-21 00:26N 42°10' W 060°56'0 0.4 11.5
2014-Apr-20 23:33N 42°10' W 060°56'0 0.2 11.5
2014-Apr-20 22:59N 42°10' W 060°56'0 2.9 11.5
2014-Apr-20 22:50N 42°10' W 060°55'0 0.0 11.5
2014-Apr-20 21:44N 42°10' W 060°55'1 0.6 11.4
2014-Apr-20 20:20N 42°10' W 060°54'1 3.2 11.3
2014-Apr-20 20:06N 42°10' W 060°55'121.1 11.3
2014-Apr-20 20:02N 42°11' W 060°54'0 0.0 11.3
2014-Apr-20 18:58N 42°11' W 060°54'1 2.7 11.2
2014-Apr-20 18:35N 42°10' W 060°54'0 2.5 11.2
2014-Apr-20 18:28N 42°10' W 060°54'0 3.5 11.2
2014-Apr-20 18:23N 42°10' W 060°54'0 0.3 11.2
2014-Apr-20 17:15N 42°10' W 060°54'0 0.0 11.0
2014-Apr-20 17:09N 42°10' W 060°54'0 0.0 11.0
2014-Apr-20 16:20N 42°10' W 060°54'0 0.1 11.0
2014-Apr-20 15:35N 42°10' W 060°54'111.3 10.9
2014-Apr-20 15:30N 42°11' W 060°53'0 0.0 10.9
2014-Apr-20 14:47N 42°11' W 060°53'0 0.0 10.8
2014-Apr-20 14:43N 42°11' W 060°53'114.7 10.8
2014-Apr-20 14:40N 42°11' W 060°52'1 0.9 10.8
2014-Apr-20 13:52N 42°12' W 060°52'0 0.0 10.7
2014-Apr-20 13:00N 42°12' W 060°52'0 0.0
2014-Apr-20 12:58N 42°12' W 060°52'0 0.0
2014-Apr-20 12:54N 42°12' W 060°52'0 0.0
2014-Apr-20 12:03N 42°12' W 060°52'0 0.0 10.1
2014-Apr-20 10:46N 42°12' W 060°52'0 0.6 9.9
2014-Apr-20 10:25N 42°12' W 060°52'0 0.0 9.9
2014-Apr-20 09:10N 42°12' W 060°52'0 1.0 9.7
2014-Apr-20 08:50N 42°12' W 060°53'1 6.9 9.8
2014-Apr-20 08:43N 42°12' W 060°52'0 0.1 9.8
2014-Apr-20 07:30N 42°12' W 060°52'0 4.8 10.1
2014-Apr-20 07:25N 42°12' W 060°52'0 0.8 10.1
2014-Apr-20 07:07N 42°12' W 060°52'110.2 10.1
2014-Apr-20 07:00N 42°12' W 060°51'0 0.0 10.1
2014-Apr-20 05:54N 42°12' W 060°51'1 5.6 10.5
2014-Apr-20 05:45N 42°12' W 060°51'0 0.0 10.2
2014-Apr-20 04:03N 42°12' W 060°51'0 0.0
2014-Apr-20 03:10N 42°12' W 060°51'0 0.0 11.0
2014-Apr-20 02:25N 42°12' W 060°51'137.5 10.9
2014-Apr-20 02:23N 42°13' W 060°50'0 0.0 10.9
2014-Apr-20 01:35N 42°13' W 060°50'0 3.4 10.9
2014-Apr-20 01:28N 42°13' W 060°49'1 9.2 10.9
2014-Apr-20 01:24N 42°13' W 060°50'0 1.0 10.9
2014-Apr-20 01:05N 42°13' W 060°50'1 2.2 10.8
2014-Apr-20 00:43N 42°13' W 060°49'1 0.7 10.9
2014-Apr-19 23:52N 42°13' W 060°50'0 0.4 10.9
2014-Apr-19 22:56N 42°13' W 060°50'4 4.5 10.8
2014-Apr-19 22:08N 42°15' W 060°46'3 6.8 10.5
2014-Apr-19 21:45N 42°14' W 060°49'3 2.0 10.3
2014-Apr-19 20:28N 42°15' W 060°46'2 1.8 10.4
2014-Apr-19 19:10N 42°15' W 060°49'1 1.6 10.3
2014-Apr-19 18:45N 42°14' W 060°50'0 0.2 10.4
2014-Apr-19 17:30N 42°14' W 060°50'0 0.0 10.3
2014-Apr-19 17:05N 42°14' W 060°50'0 0.0 10.4
2014-Apr-19 15:45N 42°14' W 060°50'1 0.8 10.3
2014-Apr-19 15:05N 42°14' W 060°50'0 1.1 10.5
2014-Apr-19 14:55N 42°14' W 060°50'1 8.0
2014-Apr-19 14:51N 42°14' W 060°49'0 0.0 10.7
2014-Apr-19 14:12N 42°14' W 060°49'0 0.0 11.0
2014-Apr-19 13:15N 42°14' W 060°49'1 0.7 12.8
2014-Apr-19 12:23N 42°14' W 060°49'0 0.2 12.7
2014-Apr-19 11:14N 42°14' W 060°49'0 0.1 12.8
2014-Apr-19 10:47N 42°14' W 060°49'0 4.3 12.8
2014-Apr-19 10:42N 42°14' W 060°49'0 5.6 12.8
2014-Apr-19 10:38N 42°15' W 060°49'0 0.0 12.8
2014-Apr-19 09:41N 42°15' W 060°49'0 0.8 12.8
2014-Apr-19 09:09N 42°15' W 060°49'0 2.9 12.8
2014-Apr-19 09:00N 42°15' W 060°48'111.2 12.8
2014-Apr-19 08:55N 42°15' W 060°50'0 0.0 12.8
2014-Apr-19 07:59N 42°15' W 060°50'0 1.2 12.8
2014-Apr-19 07:36N 42°15' W 060°50'0 0.0 12.8
2014-Apr-19 07:22N 42°15' W 060°50'0 0.9 12.8
2014-Apr-19 07:18N 42°15' W 060°50'1 0.9 12.8
2014-Apr-19 06:00N 42°15' W 060°52'0 0.0 12.8
2014-Apr-19 05:53N 42°15' W 060°52'0 0.0 12.8
2014-Apr-19 01:54N 42°15' W 060°52'1 1.0 12.8
2014-Apr-19 01:09N 42°16' W 060°52'0 0.0 12.9
2014-Apr-19 00:58N 42°16' W 060°52'0 0.0 12.9
2014-Apr-19 00:57N 42°16' W 060°52'1 1.9 12.9
2014-Apr-19 00:14N 42°15' W 060°52'0 0.0 12.9
2014-Apr-18 23:26N 42°15' W 060°52'0 0.0 12.9
2014-Apr-18 23:13N 42°15' W 060°52'1 2.0 12.9
2014-Apr-18 22:32N 42°15' W 060°50'0 0.0 12.9
2014-Apr-18 20:54N 42°15' W 060°50'139.7 12.9
2014-Apr-18 20:52N 42°14' W 060°52'0 0.0 12.9
2014-Apr-18 20:42N 42°14' W 060°52'0 0.0 12.9
2014-Apr-18 20:34N 42°14' W 060°52'0 0.0 12.9
2014-Apr-18 19:20N 42°14' W 060°52'0 0.2 12.9
2014-Apr-18 18:58N 42°14' W 060°52'0 0.3 12.9
2014-Apr-18 17:41N 42°14' W 060°52'0 0.0 13.0
2014-Apr-18 17:13N 42°14' W 060°52'0 0.0
2014-Apr-18 16:07N 42°14' W 060°52'0 0.0 13.0
2014-Apr-18 16:00N 42°14' W 060°52'1 0.7 13.0
2014-Apr-18 15:15N 42°14' W 060°52'0 0.0 13.0
2014-Apr-18 15:08N 42°14' W 060°52'0 0.0 13.0
2014-Apr-18 14:32N 42°14' W 060°52'0 0.4 13.0
2014-Apr-18 13:46N 42°14' W 060°52'0 0.0 13.0
2014-Apr-18 13:30N 42°14' W 060°52'1 3.8 13.0
2014-Apr-18 13:21N 42°14' W 060°53'0 0.0 13.0
2014-Apr-18 12:45N 42°14' W 060°53'0 0.0
2014-Apr-18 11:11N 42°14' W 060°53'1 9.6 13.0
2014-Apr-18 11:06N 42°14' W 060°52'0 0.0 13.0
2014-Apr-18 10:46N 42°14' W 060°52'0 0.0 13.0
2014-Apr-18 10:12N 42°14' W 060°52'1 1.2 13.0
2014-Apr-18 09:31N 42°14' W 060°53'0 3.8 13.0
2014-Apr-18 09:24N 42°14' W 060°53'0 0.0 13.0
2014-Apr-18 09:13N 42°14' W 060°53'0 5.2 13.0
2014-Apr-18 09:08N 42°14' W 060°53'0 0.0 13.0
2014-Apr-18 07:51N 42°14' W 060°53'113.5 13.0
2014-Apr-18 07:48N 42°13' W 060°54'0 0.1 13.0
2014-Apr-18 07:30N 42°13' W 060°54'1 9.0 13.1
2014-Apr-18 07:24N 42°12' W 060°54'0 0.0 13.1
2014-Apr-18 06:15N 42°12' W 060°54'216.5 13.0
2014-Apr-18 06:08N 42°11' W 060°54'0 0.0 13.0
2014-Apr-18 04:24N 42°11' W 060°54'0 0.0 13.0
2014-Apr-18 02:44N 42°11' W 060°54'1 1.8 12.9
2014-Apr-18 02:14N 42°11' W 060°53'0 0.0 12.9
2014-Apr-18 01:30N 42°11' W 060°53'0 0.0 12.8
2014-Apr-18 01:22N 42°11' W 060°53'0 0.0 12.8
2014-Apr-18 01:08N 42°11' W 060°53'0 0.7 12.8
2014-Apr-18 00:34N 42°10' W 060°53'0 0.5 12.9
2014-Apr-18 00:29N 42°10' W 060°53'1 1.4 12.9
2014-Apr-17 23:50N 42°10' W 060°52'0 1.1 12.9
2014-Apr-17 23:27N 42°11' W 060°52'0 0.7 13.0
2014-Apr-17 22:54N 42°11' W 060°52'0 0.0 13.0
2014-Apr-17 21:15N 42°11' W 060°52'1 3.9 13.0
2014-Apr-17 21:04N 42°10' W 060°52'0 0.0 13.0
2014-Apr-17 20:53N 42°10' W 060°52'0 0.0 13.1
2014-Apr-17 20:51N 42°10' W 060°52'0 0.0 13.0
2014-Apr-17 19:40N 42°10' W 060°52'0 2.1 13.1
2014-Apr-17 19:31N 42°10' W 060°52'0 0.0 13.1
2014-Apr-17 19:11N 42°10' W 060°52'1 0.4 13.1
2014-Apr-17 17:51N 42°10' W 060°52'2 4.6 13.2
2014-Apr-17 17:28N 42°09' W 060°54'1 0.4 13.2
2014-Apr-17 13:59N 42°08' W 060°52'1 2.1 13.2
2014-Apr-17 13:38N 42°08' W 060°53'111.8 13.2
2014-Apr-17 13:31N 42°07' W 060°52'1 2.9
2014-Apr-17 13:11N 42°08' W 060°52'1 1.1 13.3
2014-Apr-17 12:20N 42°07' W 060°52'0 0.0 13.2
2014-Apr-17 11:58N 42°07' W 060°52'0 0.0 13.2
2014-Apr-17 11:35N 42°07' W 060°52'0 0.0 13.2
2014-Apr-17 11:30N 42°07' W 060°52'0 0.7 13.2
2014-Apr-17 10:59N 42°07' W 060°52'0 0.0 13.2
2014-Apr-17 09:59N 42°07' W 060°52'0 0.0 13.3
2014-Apr-17 09:53N 42°07' W 060°52'0 3.8 13.3
2014-Apr-17 09:48N 42°07' W 060°52'0 0.5 13.3
2014-Apr-17 09:00N 42°07' W 060°52'1 1.1 13.3
2014-Apr-17 08:13N 42°06' W 060°51'0 0.0 13.3
2014-Apr-17 07:59N 42°06' W 060°51'2 4.4 13.3
2014-Apr-17 07:38N 42°07' W 060°49'0 0.0 13.2
2014-Apr-17 07:18N 42°07' W 060°49'0 0.1 13.2
2014-Apr-17 06:26N 42°07' W 060°49'0 0.0 13.1
2014-Apr-17 06:14N 42°07' W 060°49'0 0.0 13.0
2014-Apr-17 04:43N 42°07' W 060°49'1 0.8 12.4
2014-Apr-17 02:58N 42°07' W 060°47'0 0.0 11.9
2014-Apr-17 02:27N 42°07' W 060°47'0 0.0 12.5
2014-Apr-17 01:50N 42°07' W 060°47'0 0.0
2014-Apr-17 01:21N 42°07' W 060°47'0 1.1 12.6
2014-Apr-17 00:57N 42°08' W 060°47'1 1.2 14.0
2014-Apr-17 00:05N 42°08' W 060°46'0 3.0 14.0
2014-Apr-16 23:59N 42°08' W 060°46'0 0.9 14.0
2014-Apr-16 23:40N 42°08' W 060°46'1 2.3 14.0
2014-Apr-16 23:15N 42°09' W 060°46'0 0.0 14.0
2014-Apr-16 21:44N 42°09' W 060°46'0 0.6 14.1
2014-Apr-16 20:59N 42°10' W 060°46'0 0.0 14.2
2014-Apr-16 20:56N 42°10' W 060°46'0 0.1 14.2
2014-Apr-16 20:00N 42°10' W 060°46'1 0.8 14.1
2014-Apr-16 19:23N 42°10' W 060°46'1 1.0 14.4
2014-Apr-16 18:21N 42°10' W 060°48'0 0.3 14.4
2014-Apr-16 18:05N 42°10' W 060°48'1 3.2 14.4
2014-Apr-16 17:40N 42°09' W 060°47'2 1.6 14.4
2014-Apr-16 16:21N 42°10' W 060°49'1 0.7 14.2
2014-Apr-16 15:29N 42°09' W 060°49'147.1
2014-Apr-16 15:28N 42°08' W 060°49'0 0.0 14.2
2014-Apr-16 15:13N 42°08' W 060°49'2 1.3 14.2
2014-Apr-16 13:48N 42°07' W 060°47'0 0.0 14.1
2014-Apr-16 12:40N 42°07' W 060°47'0 0.0 14.1
2014-Apr-16 12:11N 42°07' W 060°47'0 0.0 14.0
2014-Apr-16 11:57N 42°07' W 060°47'0 0.0 14.0
2014-Apr-16 11:47N 42°07' W 060°47'0 0.0 14.0
2014-Apr-16 11:13N 42°07' W 060°47'0 0.0 14.0
2014-Apr-16 11:11N 42°07' W 060°47'0 0.0 14.0
2014-Apr-16 10:21N 42°07' W 060°47'0 7.5 14.0
2014-Apr-16 10:17N 42°07' W 060°47'0 0.2 14.0
2014-Apr-16 09:38N 42°07' W 060°47'0 4.3 14.0
2014-Apr-16 09:35N 42°07' W 060°47'1 5.3 14.0
2014-Apr-16 09:29N 42°07' W 060°47'0 0.0 14.0
2014-Apr-16 08:37N 42°07' W 060°47'1 1.4 13.9
2014-Apr-16 07:49N 42°07' W 060°49'0 0.0 13.8
2014-Apr-16 07:46N 42°07' W 060°49'0 0.1 13.8
2014-Apr-16 06:38N 42°07' W 060°49'0 0.0 13.8
2014-Apr-16 06:27N 42°07' W 060°49'0 0.0 13.8
2014-Apr-16 04:53N 42°07' W 060°49'112.4 13.8
2014-Apr-16 04:46N 42°06' W 060°50'0 0.0 13.8
2014-Apr-16 03:11N 42°06' W 060°50'0 0.0 13.8
2014-Apr-16 02:55N 42°06' W 060°50'0 0.0 13.8
2014-Apr-16 02:09N 42°06' W 060°50'0 0.4 13.8
2014-Apr-16 01:33N 42°05' W 060°50'0 3.1 13.7
2014-Apr-16 01:28N 42°06' W 060°50'0 1.0 13.7
2014-Apr-16 01:13N 42°05' W 060°50'1 1.3 13.7
2014-Apr-16 00:31N 42°05' W 060°50'0 0.3 13.5
2014-Apr-15 23:50N 42°05' W 060°50'112.4 13.5
2014-Apr-15 23:46N 42°04' W 060°50'0 0.0 13.5
2014-Apr-15 23:37N 42°04' W 060°50'1 3.6 13.5
2014-Apr-15 23:28N 42°04' W 060°50'1 0.7 13.5
2014-Apr-15 22:13N 42°03' W 060°50'0 0.0 13.3
2014-Apr-15 22:01N 42°03' W 060°50'0 0.0 13.3
2014-Apr-15 20:28N 42°03' W 060°50'1 0.9 13.0
2014-Apr-15 19:35N 42°02' W 060°50'0 0.0 13.1
2014-Apr-15 18:46N 42°02' W 060°50'1 1.7 13.1
2014-Apr-15 18:13N 42°01' W 060°49'1 2.0 13.1
2014-Apr-15 17:49N 42°01' W 060°50'1 0.7 13.1
2014-Apr-15 16:31N 42°02' W 060°49'0 0.0 13.2
2014-Apr-15 15:46N 42°02' W 060°49'340.4 13.2
2014-Apr-15 15:41N 41°59' W 060°52'0 0.0 13.2
2014-Apr-15 14:51N 41°59' W 060°52'0 0.0 13.2
2014-Apr-15 14:40N 41°59' W 060°52'0 0.0 13.2
2014-Apr-15 14:08N 41°59' W 060°52'0 0.0 13.2
2014-Apr-15 13:59N 41°59' W 060°52'0 0.0 13.2
2014-Apr-15 13:58N 41°59' W 060°52'0 0.0 13.2
2014-Apr-15 13:54N 41°59' W 060°52'0 0.0 13.2
2014-Apr-15 13:45N 41°59' W 060°52'0 0.0 13.2
2014-Apr-15 13:00N 41°59' W 060°52'145.2 13.1
2014-Apr-15 12:59N 41°59' W 060°52'0 0.0 13.0
2014-Apr-15 12:25N 41°59' W 060°52'1 1.8 12.9
2014-Apr-15 12:07N 41°58' W 060°52'0 0.0 12.8
2014-Apr-15 11:40N 41°58' W 060°52'0 0.0 12.8
2014-Apr-15 10:45N 41°58' W 060°52'113.1 12.7
2014-Apr-15 10:40N 41°57' W 060°53'0 0.0 12.7
2014-Apr-15 10:00N 41°57' W 060°53'1 2.2 12.8
2014-Apr-15 09:44N 41°57' W 060°54'0 0.0 12.8
2014-Apr-15 09:07N 41°57' W 060°54'214.1 12.9
2014-Apr-15 09:00N 41°56' W 060°52'1 1.4 13.0
2014-Apr-15 08:26N 41°57' W 060°53'0 4.0 12.9
2014-Apr-15 08:20N 41°56' W 060°52'1 2.5 12.9
2014-Apr-15 08:01N 41°56' W 060°53'0 0.0 12.9
2014-Apr-15 07:22N 41°56' W 060°53'0 0.0 12.8
2014-Apr-15 06:44N 41°56' W 060°53'1 8.9 12.8
2014-Apr-15 06:39N 41°55' W 060°53'0 0.0 12.7
2014-Apr-15 05:01N 41°55' W 060°53'1 0.3 12.7
2014-Apr-15 03:14N 41°55' W 060°52'1 1.0 13.1
2014-Apr-15 02:29N 41°55' W 060°53'0 0.0 13.1
2014-Apr-15 01:45N 41°55' W 060°53'0 1.3 13.4
2014-Apr-15 01:30N 41°55' W 060°53'1 0.8 13.4
2014-Apr-15 00:51N 41°54' W 060°54'0 0.4 13.5
2014-Apr-14 23:59N 41°54' W 060°53'0 3.6 13.6
2014-Apr-14 23:58N 41°54' W 060°53'1 1.6 13.6
2014-Apr-14 23:09N 41°53' W 060°54'0 0.0 14.0
2014-Apr-14 22:30N 41°53' W 060°54'1 1.3
2014-Apr-14 21:21N 41°52' W 060°54'1 2.9 13.8
2014-Apr-14 21:06N 41°52' W 060°55'1 6.2 13.8
2014-Apr-14 20:59N 41°52' W 060°54'0 0.0 13.8
2014-Apr-14 20:52N 41°52' W 060°54'0 0.0 13.9
2014-Apr-14 20:49N 41°52' W 060°54'0 0.3 13.8
2014-Apr-14 19:46N 41°52' W 060°55'1 7.7 13.8
2014-Apr-14 19:37N 41°51' W 060°54'0 0.0 13.8
2014-Apr-14 19:12N 41°51' W 060°54'0 0.0 13.8
2014-Apr-14 19:07N 41°51' W 060°54'0 0.0 13.8
2014-Apr-14 18:26N 41°51' W 060°54'0 2.2 13.8
2014-Apr-14 18:17N 41°50' W 060°55'0 0.0 13.8
2014-Apr-14 17:59N 41°50' W 060°55'1 0.8 13.8
2014-Apr-14 16:42N 41°50' W 060°56'1 1.0 13.7
2014-Apr-14 15:54N 41°49' W 060°55'0 0.0 13.7
2014-Apr-14 15:10N 41°49' W 060°55'0 1.7 13.6
2014-Apr-14 14:59N 41°49' W 060°55'0 0.0 13.6
2014-Apr-14 14:14N 41°49' W 060°55'0 0.0 13.5
2014-Apr-14 14:11N 41°49' W 060°55'0 0.0 13.5
2014-Apr-14 13:28N 41°49' W 060°55'0 1.5 13.5
2014-Apr-14 13:23N 41°49' W 060°55'0 0.2 13.5
2014-Apr-14 11:09N 41°49' W 060°56'1 6.0 13.8
2014-Apr-14 11:00N 41°49' W 060°55'0 0.0 13.8
2014-Apr-14 09:59N 41°49' W 060°55'0 0.0 13.8
2014-Apr-14 09:56N 41°49' W 060°55'2 3.9 13.8
2014-Apr-14 09:29N 41°48' W 060°56'0 0.0
2014-Apr-14 09:27N 41°48' W 060°56'0 0.0 13.9
2014-Apr-14 09:24N 41°48' W 060°56'0 0.0 13.9
2014-Apr-14 08:57N 41°48' W 060°56'0 0.6 13.9
2014-Apr-14 08:30N 41°48' W 060°56'0 0.3 13.9
2014-Apr-14 08:14N 41°48' W 060°56'129.6 13.9
2014-Apr-14 08:12N 41°47' W 060°56'0 0.0 13.8
2014-Apr-14 08:09N 41°47' W 060°56'0 0.0 13.8
2014-Apr-14 07:47N 41°47' W 060°56'0 0.0 13.7
2014-Apr-14 06:59N 41°47' W 060°56'1 7.7 13.7
2014-Apr-14 06:50N 41°46' W 060°56'0 0.0 13.7
2014-Apr-14 06:34N 41°46' W 060°56'0 0.0 13.9
2014-Apr-14 05:14N 41°46' W 060°56'225.3 14.0
2014-Apr-14 05:09N 41°43' W 060°57'0 0.0 14.0
2014-Apr-14 02:46N 41°43' W 060°57'0 0.0
2014-Apr-14 01:58N 41°43' W 060°57'0 0.0 14.0
2014-Apr-14 01:13N 41°43' W 060°57'0 0.0 14.0
2014-Apr-14 01:01N 41°43' W 060°57'1 0.8
2014-Apr-14 00:14N 41°43' W 060°57'1 1.5 14.1
2014-Apr-13 23:28N 41°42' W 060°57'1 4.1 14.2
2014-Apr-13 23:19N 41°43' W 060°57'1 2.8 14.2
2014-Apr-13 22:52N 41°42' W 060°56'0 0.0 14.2
2014-Apr-13 22:35N 41°42' W 060°56'0 0.0 14.2
2014-Apr-13 21:38N 41°42' W 060°56'0 0.0 14.3
2014-Apr-13 21:30N 41°42' W 060°56'0 0.0
2014-Apr-13 19:58N 41°42' W 060°56'3 0.5 14.4
2014-Apr-13 15:12N 41°39' W 060°57'1 0.8 14.1
2014-Apr-13 14:30N 41°39' W 060°58'   14.0

Dump ship's entire track history

sailing weather and tide predictions

Buoy 41991